sensor_id;sensor_type;location;lat;lon;timestamp;pressure;altitude;pressure_sealevel;temperature;humidity
16544;BME280;8384;47.996;7.786;2023-04-20T00:01:27;98664.69;;;7.58;77.94
16544;BME280;8384;47.996;7.786;2023-04-20T00:03:52;98657.88;;;7.44;78.42
16544;BME280;8384;47.996;7.786;2023-04-20T00:06:17;98650.66;;;7.49;79.19
16544;BME280;8384;47.996;7.786;2023-04-20T00:08:45;98640.16;;;7.41;79.48
16544;BME280;8384;47.996;7.786;2023-04-20T00:11:10;98654.47;;;7.48;76.79
16544;BME280;8384;47.996;7.786;2023-04-20T00:13:36;98641.81;;;7.42;78.17
16544;BME280;8384;47.996;7.786;2023-04-20T00:16:01;98629.44;;;7.34;78.31
16544;BME280;8384;47.996;7.786;2023-04-20T00:18:27;98630.09;;;7.25;78.19
16544;BME280;8384;47.996;7.786;2023-04-20T00:20:52;98627.44;;;7.30;78.08
16544;BME280;8384;47.996;7.786;2023-04-20T00:23:17;98630.16;;;7.30;77.66
16544;BME280;8384;47.996;7.786;2023-04-20T00:25:43;98612.19;;;7.29;78.07
16544;BME280;8384;47.996;7.786;2023-04-20T00:28:08;98613.50;;;7.26;77.52
16544;BME280;8384;47.996;7.786;2023-04-20T00:30:34;98612.34;;;7.22;77.94
16544;BME280;8384;47.996;7.786;2023-04-20T00:32:59;98609.25;;;7.30;77.64
16544;BME280;8384;47.996;7.786;2023-04-20T00:35:25;98604.97;;;7.34;76.97
16544;BME280;8384;47.996;7.786;2023-04-20T00:37:50;98601.19;;;7.35;76.58
16544;BME280;8384;47.996;7.786;2023-04-20T00:40:16;98564.22;;;7.05;75.37
16544;BME280;8384;47.996;7.786;2023-04-20T00:42:41;98598.84;;;7.27;75.90
16544;BME280;8384;47.996;7.786;2023-04-20T00:45:07;98570.94;;;7.32;73.03
16544;BME280;8384;47.996;7.786;2023-04-20T00:47:32;98575.50;;;7.43;73.34
16544;BME280;8384;47.996;7.786;2023-04-20T00:49:57;98570.06;;;7.43;73.53
16544;BME280;8384;47.996;7.786;2023-04-20T00:52:23;98575.47;;;7.26;74.24
16544;BME280;8384;47.996;7.786;2023-04-20T00:54:48;98574.66;;;7.26;74.81
16544;BME280;8384;47.996;7.786;2023-04-20T00:57:14;98570.50;;;7.23;73.90
16544;BME280;8384;47.996;7.786;2023-04-20T00:59:40;98559.25;;;7.02;73.18
16544;BME280;8384;47.996;7.786;2023-04-20T01:02:05;98550.41;;;6.95;74.10
16544;BME280;8384;47.996;7.786;2023-04-20T01:04:32;98559.00;;;7.04;74.06
16544;BME280;8384;47.996;7.786;2023-04-20T01:07:00;98559.00;;;7.04;73.48
16544;BME280;8384;47.996;7.786;2023-04-20T01:09:25;98552.97;;;7.14;74.17
16544;BME280;8384;47.996;7.786;2023-04-20T01:11:50;98558.28;;;7.38;73.08
16544;BME280;8384;47.996;7.786;2023-04-20T01:14:15;98562.97;;;7.42;72.61
16544;BME280;8384;47.996;7.786;2023-04-20T01:16:41;98545.25;;;7.40;70.77
16544;BME280;8384;47.996;7.786;2023-04-20T01:19:06;98542.09;;;7.14;73.21
16544;BME280;8384;47.996;7.786;2023-04-20T01:21:32;98535.28;;;6.99;74.08
16544;BME280;8384;47.996;7.786;2023-04-20T01:23:57;98528.56;;;6.90;74.55
16544;BME280;8384;47.996;7.786;2023-04-20T01:26:23;98520.94;;;6.87;73.86
16544;BME280;8384;47.996;7.786;2023-04-20T01:28:48;98535.44;;;6.93;73.39
16544;BME280;8384;47.996;7.786;2023-04-20T01:31:14;98531.66;;;6.94;74.41
16544;BME280;8384;47.996;7.786;2023-04-20T01:33:39;98527.97;;;7.00;74.14
16544;BME280;8384;47.996;7.786;2023-04-20T01:36:06;98522.38;;;7.07;73.10
16544;BME280;8384;47.996;7.786;2023-04-20T01:38:32;98515.63;;;7.09;72.46
16544;BME280;8384;47.996;7.786;2023-04-20T01:40:59;98515.94;;;6.96;72.88
16544;BME280;8384;47.996;7.786;2023-04-20T01:43:25;98476.88;;;7.02;72.27
16544;BME280;8384;47.996;7.786;2023-04-20T01:45:51;98507.66;;;7.19;71.52
16544;BME280;8384;47.996;7.786;2023-04-20T01:48:16;98502.00;;;6.92;73.80
16544;BME280;8384;47.996;7.786;2023-04-20T01:50:41;98511.25;;;6.79;74.01
16544;BME280;8384;47.996;7.786;2023-04-20T01:53:06;98498.41;;;6.74;75.64
16544;BME280;8384;47.996;7.786;2023-04-20T01:55:32;98503.94;;;6.80;76.01
16544;BME280;8384;47.996;7.786;2023-04-20T01:57:58;98498.44;;;6.63;81.48
16544;BME280;8384;47.996;7.786;2023-04-20T02:00:23;98487.84;;;6.20;86.39
16544;BME280;8384;47.996;7.786;2023-04-20T02:02:48;98493.59;;;6.24;87.79
16544;BME280;8384;47.996;7.786;2023-04-20T02:05:13;98470.38;;;5.92;86.13
16544;BME280;8384;47.996;7.786;2023-04-20T02:07:39;98481.34;;;6.09;86.47
16544;BME280;8384;47.996;7.786;2023-04-20T02:10:05;98475.22;;;5.90;88.03
16544;BME280;8384;47.996;7.786;2023-04-20T02:12:30;98483.25;;;5.85;87.87
16544;BME280;8384;47.996;7.786;2023-04-20T02:14:55;98481.91;;;6.23;86.33
16544;BME280;8384;47.996;7.786;2023-04-20T02:17:21;98451.31;;;6.40;85.48
16544;BME280;8384;47.996;7.786;2023-04-20T02:19:46;98479.66;;;6.73;84.37
16544;BME280;8384;47.996;7.786;2023-04-20T02:22:11;98479.66;;;6.73;82.98
16544;BME280;8384;47.996;7.786;2023-04-20T02:24:37;98474.94;;;6.68;84.08
16544;BME280;8384;47.996;7.786;2023-04-20T02:27:03;98451.97;;;6.59;83.18
16544;BME280;8384;47.996;7.786;2023-04-20T02:29:28;98463.41;;;6.61;83.00
16544;BME280;8384;47.996;7.786;2023-04-20T02:31:53;98468.47;;;6.57;82.64
16544;BME280;8384;47.996;7.786;2023-04-20T02:34:18;98466.69;;;6.34;84.63
16544;BME280;8384;47.996;7.786;2023-04-20T02:36:44;98458.13;;;6.42;84.59
16544;BME280;8384;47.996;7.786;2023-04-20T02:39:09;98456.56;;;6.18;85.13
16544;BME280;8384;47.996;7.786;2023-04-20T02:41:34;98414.59;;;5.73;85.86
16544;BME280;8384;47.996;7.786;2023-04-20T02:44:00;98436.66;;;6.00;84.92
16544;BME280;8384;47.996;7.786;2023-04-20T02:46:25;98433.09;;;5.88;85.78
16544;BME280;8384;47.996;7.786;2023-04-20T02:48:50;98445.38;;;5.90;86.26
16544;BME280;8384;47.996;7.786;2023-04-20T02:51:15;98447.75;;;5.75;87.74
16544;BME280;8384;47.996;7.786;2023-04-20T02:53:41;98454.13;;;5.80;89.56
16544;BME280;8384;47.996;7.786;2023-04-20T02:56:06;98430.88;;;5.84;89.36
16544;BME280;8384;47.996;7.786;2023-04-20T02:58:31;98456.00;;;5.80;90.31
16544;BME280;8384;47.996;7.786;2023-04-20T03:01:00;98454.00;;;5.75;91.23
16544;BME280;8384;47.996;7.786;2023-04-20T03:03:26;98450.81;;;6.02;90.54
16544;BME280;8384;47.996;7.786;2023-04-20T03:05:52;98451.31;;;6.40;85.61
16544;BME280;8384;47.996;7.786;2023-04-20T03:08:17;98454.56;;;6.54;84.05
16544;BME280;8384;47.996;7.786;2023-04-20T03:10:42;98427.72;;;6.28;81.55
16544;BME280;8384;47.996;7.786;2023-04-20T03:13:07;98417.53;;;6.07;80.15
16544;BME280;8384;47.996;7.786;2023-04-20T03:15:33;98436.38;;;6.13;81.06
16544;BME280;8384;47.996;7.786;2023-04-20T03:17:58;98432.63;;;6.03;82.92
16544;BME280;8384;47.996;7.786;2023-04-20T03:20:23;98446.22;;;6.03;82.23
16544;BME280;8384;47.996;7.786;2023-04-20T03:22:49;98406.59;;;5.78;83.22
16544;BME280;8384;47.996;7.786;2023-04-20T03:25:15;98437.25;;;6.02;81.51
16544;BME280;8384;47.996;7.786;2023-04-20T03:27:40;98432.16;;;5.94;82.54
16544;BME280;8384;47.996;7.786;2023-04-20T03:30:06;98436.69;;;5.76;83.45
16544;BME280;8384;47.996;7.786;2023-04-20T03:32:31;98431.94;;;5.83;82.68
16544;BME280;8384;47.996;7.786;2023-04-20T03:34:56;98434.78;;;5.77;84.59
16544;BME280;8384;47.996;7.786;2023-04-20T03:37:21;98429.59;;;5.75;83.38
16544;BME280;8384;47.996;7.786;2023-04-20T03:39:47;98427.56;;;5.70;83.87
16544;BME280;8384;47.996;7.786;2023-04-20T03:42:12;98425.59;;;5.42;85.74
16544;BME280;8384;47.996;7.786;2023-04-20T03:44:38;98413.09;;;5.05;90.48
16544;BME280;8384;47.996;7.786;2023-04-20T03:47:03;98394.81;;;4.89;92.55
16544;BME280;8384;47.996;7.786;2023-04-20T03:49:29;98414.59;;;4.89;94.34
16544;BME280;8384;47.996;7.786;2023-04-20T03:51:54;98409.94;;;5.20;93.35
16544;BME280;8384;47.996;7.786;2023-04-20T03:54:19;98398.75;;;5.29;91.04
16544;BME280;8384;47.996;7.786;2023-04-20T03:56:46;98408.75;;;5.52;89.70
16544;BME280;8384;47.996;7.786;2023-04-20T03:59:13;98415.09;;;5.46;88.79
16544;BME280;8384;47.996;7.786;2023-04-20T04:01:38;98387.78;;;5.35;88.57
16544;BME280;8384;47.996;7.786;2023-04-20T04:04:04;98410.19;;;5.43;88.14
16544;BME280;8384;47.996;7.786;2023-04-20T04:06:29;98411.59;;;5.33;88.06
16544;BME280;8384;47.996;7.786;2023-04-20T04:08:56;98376.34;;;5.09;88.10
16544;BME280;8384;47.996;7.786;2023-04-20T04:11:21;98404.50;;;5.20;87.92
16544;BME280;8384;47.996;7.786;2023-04-20T04:13:46;98343.91;;;4.79;88.90
16544;BME280;8384;47.996;7.786;2023-04-20T04:16:11;98402.72;;;5.14;88.72
16544;BME280;8384;47.996;7.786;2023-04-20T04:18:37;98402.84;;;5.07;89.21
16544;BME280;8384;47.996;7.786;2023-04-20T04:21:05;98363.13;;;4.77;89.59
16544;BME280;8384;47.996;7.786;2023-04-20T04:23:34;98406.25;;;5.03;89.02
16544;BME280;8384;47.996;7.786;2023-04-20T04:25:59;98410.34;;;4.93;89.26
16544;BME280;8384;47.996;7.786;2023-04-20T04:28:25;98373.44;;;4.57;89.67
16544;BME280;8384;47.996;7.786;2023-04-20T04:30:51;98369.03;;;4.44;88.54
16544;BME280;8384;47.996;7.786;2023-04-20T04:33:16;98399.09;;;4.66;87.23
16544;BME280;8384;47.996;7.786;2023-04-20T04:35:43;98406.75;;;4.69;87.81
16544;BME280;8384;47.996;7.786;2023-04-20T04:38:10;98399.09;;;4.66;87.35
16544;BME280;8384;47.996;7.786;2023-04-20T04:40:36;98381.16;;;4.53;86.92
16544;BME280;8384;47.996;7.786;2023-04-20T04:43:03;98395.09;;;4.57;86.00
16544;BME280;8384;47.996;7.786;2023-04-20T04:45:29;98365.69;;;4.30;85.48
16544;BME280;8384;47.996;7.786;2023-04-20T04:47:54;98358.22;;;4.13;85.08
16544;BME280;8384;47.996;7.786;2023-04-20T04:50:21;98388.72;;;4.20;85.38
16544;BME280;8384;47.996;7.786;2023-04-20T04:52:46;98387.38;;;4.11;85.69
16544;BME280;8384;47.996;7.786;2023-04-20T04:55:11;98397.97;;;4.13;85.91
16544;BME280;8384;47.996;7.786;2023-04-20T04:57:37;98399.28;;;4.10;86.21
16544;BME280;8384;47.996;7.786;2023-04-20T05:00:03;98397.97;;;4.13;86.38
16544;BME280;8384;47.996;7.786;2023-04-20T05:02:32;98384.53;;;4.06;86.04
16544;BME280;8384;47.996;7.786;2023-04-20T05:04:57;98409.84;;;4.12;84.87
16544;BME280;8384;47.996;7.786;2023-04-20T05:07:23;98412.56;;;4.12;85.72
16544;BME280;8384;47.996;7.786;2023-04-20T05:09:49;98406.78;;;4.08;85.31
16544;BME280;8384;47.996;7.786;2023-04-20T05:12:15;98386.38;;;3.75;85.23
16544;BME280;8384;47.996;7.786;2023-04-20T05:14:40;98422.03;;;3.84;85.86
16544;BME280;8384;47.996;7.786;2023-04-20T05:17:05;98412.34;;;3.76;85.34
16544;BME280;8384;47.996;7.786;2023-04-20T05:19:30;98425.88;;;3.57;85.38
16544;BME280;8384;47.996;7.786;2023-04-20T05:21:56;98417.59;;;3.52;87.19
16544;BME280;8384;47.996;7.786;2023-04-20T05:24:21;98413.41;;;3.56;86.36
16544;BME280;8384;47.996;7.786;2023-04-20T05:26:46;98418.81;;;3.56;86.39
16544;BME280;8384;47.996;7.786;2023-04-20T05:29:14;98409.25;;;3.54;86.74
16544;BME280;8384;47.996;7.786;2023-04-20T05:31:42;98308.75;;;2.57;86.08
16544;BME280;8384;47.996;7.786;2023-04-20T05:34:15;98351.81;;;2.96;87.17
16544;BME280;8384;47.996;7.786;2023-04-20T05:36:40;98272.47;;;2.53;86.93
16544;BME280;8384;47.996;7.786;2023-04-20T05:39:06;98422.22;;;3.45;86.79
16544;BME280;8384;47.996;7.786;2023-04-20T05:41:31;98355.97;;;2.98;87.50
16544;BME280;8384;47.996;7.786;2023-04-20T05:43:57;98443.94;;;3.57;86.89
16544;BME280;8384;47.996;7.786;2023-04-20T05:46:22;98418.19;;;3.54;85.04
16544;BME280;8384;47.996;7.786;2023-04-20T05:48:50;98358.25;;;3.20;86.21
16544;BME280;8384;47.996;7.786;2023-04-20T05:51:16;98300.53;;;2.96;84.96
16544;BME280;8384;47.996;7.786;2023-04-20T05:53:44;98319.06;;;3.11;84.40
16544;BME280;8384;47.996;7.786;2023-04-20T05:56:40;98388.38;;;3.61;84.48
16544;BME280;8384;47.996;7.786;2023-04-20T05:59:05;98414.75;;;3.66;84.42
16544;BME280;8384;47.996;7.786;2023-04-20T06:01:37;98329.97;;;3.23;84.27
16544;BME280;8384;47.996;7.786;2023-04-20T06:04:02;98393.94;;;3.85;82.87
16544;BME280;8384;47.996;7.786;2023-04-20T06:06:28;98377.78;;;3.41;83.53
16544;BME280;8384;47.996;7.786;2023-04-20T06:08:59;98429.09;;;3.85;84.75
16544;BME280;8384;47.996;7.786;2023-04-20T06:11:30;98279.09;;;3.20;83.45
16544;BME280;8384;47.996;7.786;2023-04-20T06:13:56;98384.78;;;3.86;82.86
16544;BME280;8384;47.996;7.786;2023-04-20T06:16:35;98454.34;;;3.97;84.49
16544;BME280;8384;47.996;7.786;2023-04-20T06:19:01;98346.50;;;3.52;84.03
16544;BME280;8384;47.996;7.786;2023-04-20T06:21:26;98375.81;;;3.85;84.26
16544;BME280;8384;47.996;7.786;2023-04-20T06:23:57;98341.84;;;3.40;82.81
16544;BME280;8384;47.996;7.786;2023-04-20T06:26:22;98444.09;;;4.18;83.85
16544;BME280;8384;47.996;7.786;2023-04-20T06:28:56;98322.69;;;3.60;84.77
16544;BME280;8384;47.996;7.786;2023-04-20T06:31:27;98412.69;;;4.47;83.64
16544;BME280;8384;47.996;7.786;2023-04-20T06:33:53;98301.06;;;3.79;83.89
16544;BME280;8384;47.996;7.786;2023-04-20T06:36:41;98383.31;;;4.20;84.58
16544;BME280;8384;47.996;7.786;2023-04-20T06:39:07;98337.16;;;4.46;81.30
16544;BME280;8384;47.996;7.786;2023-04-20T06:41:49;98376.16;;;4.69;81.62
16544;BME280;8384;47.996;7.786;2023-04-20T06:44:18;98431.34;;;5.10;81.40
16544;BME280;8384;47.996;7.786;2023-04-20T06:46:43;98313.50;;;4.53;81.17
16544;BME280;8384;47.996;7.786;2023-04-20T06:49:08;98304.19;;;4.37;79.80
16544;BME280;8384;47.996;7.786;2023-04-20T06:51:33;98355.09;;;4.59;81.42
16544;BME280;8384;47.996;7.786;2023-04-20T06:54:07;98350.81;;;4.51;81.51
16544;BME280;8384;47.996;7.786;2023-04-20T06:56:33;98449.63;;;5.15;81.08
16544;BME280;8384;47.996;7.786;2023-04-20T06:58:58;98409.78;;;5.03;80.53
16544;BME280;8384;47.996;7.786;2023-04-20T07:01:23;98423.91;;;5.05;81.68
16544;BME280;8384;47.996;7.786;2023-04-20T07:03:48;98422.53;;;5.15;82.21
16544;BME280;8384;47.996;7.786;2023-04-20T07:06:20;98325.91;;;4.61;82.06
16544;BME280;8384;47.996;7.786;2023-04-20T07:08:45;98358.03;;;4.69;81.59
16544;BME280;8384;47.996;7.786;2023-04-20T07:11:23;98392.47;;;5.28;80.30
16544;BME280;8384;47.996;7.786;2023-04-20T07:13:52;98339.22;;;5.22;79.16
16544;BME280;8384;47.996;7.786;2023-04-20T07:16:17;98403.16;;;5.70;79.18
16544;BME280;8384;47.996;7.786;2023-04-20T07:18:43;98276.72;;;4.88;79.32
16544;BME280;8384;47.996;7.786;2023-04-20T07:21:08;98363.84;;;5.44;80.14
16544;BME280;8384;47.996;7.786;2023-04-20T07:23:36;98253.88;;;4.72;80.66
16544;BME280;8384;47.996;7.786;2023-04-20T07:26:04;98353.94;;;5.26;79.97
16544;BME280;8384;47.996;7.786;2023-04-20T07:28:29;98279.78;;;4.79;79.92
16544;BME280;8384;47.996;7.786;2023-04-20T07:30:55;98399.53;;;5.53;80.07
16544;BME280;8384;47.996;7.786;2023-04-20T07:33:20;98414.75;;;5.42;80.51
16544;BME280;8384;47.996;7.786;2023-04-20T07:35:45;98217.34;;;4.15;79.42
16544;BME280;8384;47.996;7.786;2023-04-20T07:38:14;98225.28;;;3.98;80.24
16544;BME280;8384;47.996;7.786;2023-04-20T07:40:39;98250.53;;;4.22;81.73
16544;BME280;8384;47.996;7.786;2023-04-20T07:43:11;98403.91;;;5.42;82.14
16544;BME280;8384;47.996;7.786;2023-04-20T07:45:44;98374.09;;;5.06;80.91
16544;BME280;8384;47.996;7.786;2023-04-20T07:48:09;98403.31;;;5.40;80.96
16544;BME280;8384;47.996;7.786;2023-04-20T07:50:36;98343.72;;;4.92;81.21
16544;BME280;8384;47.996;7.786;2023-04-20T07:53:04;98252.31;;;4.40;82.17
16544;BME280;8384;47.996;7.786;2023-04-20T07:55:30;98351.38;;;5.07;81.95
16544;BME280;8384;47.996;7.786;2023-04-20T07:57:56;98198.41;;;4.15;81.78
16544;BME280;8384;47.996;7.786;2023-04-20T08:00:21;98370.69;;;5.23;82.77
16544;BME280;8384;47.996;7.786;2023-04-20T08:02:47;98336.28;;;5.35;82.80
16544;BME280;8384;47.996;7.786;2023-04-20T08:05:15;98399.22;;;6.14;82.40
16544;BME280;8384;47.996;7.786;2023-04-20T08:07:43;98341.72;;;6.00;81.13
16544;BME280;8384;47.996;7.786;2023-04-20T08:10:19;98455.16;;;6.56;80.31
16544;BME280;8384;47.996;7.786;2023-04-20T08:12:50;98247.09;;;5.92;79.04
16544;BME280;8384;47.996;7.786;2023-04-20T08:15:17;98318.50;;;6.38;77.72
16544;BME280;8384;47.996;7.786;2023-04-20T08:17:45;98384.34;;;6.92;77.37
16544;BME280;8384;47.996;7.786;2023-04-20T08:20:11;98384.59;;;6.73;77.44
16544;BME280;8384;47.996;7.786;2023-04-20T08:22:39;98382.03;;;7.00;76.50
16544;BME280;8384;47.996;7.786;2023-04-20T08:25:05;98331.78;;;6.52;76.05
16544;BME280;8384;47.996;7.786;2023-04-20T08:27:33;98318.31;;;6.57;76.21
16544;BME280;8384;47.996;7.786;2023-04-20T08:29:59;98375.13;;;7.27;75.28
16544;BME280;8384;47.996;7.786;2023-04-20T08:32:24;98382.34;;;7.21;73.79
16544;BME280;8384;47.996;7.786;2023-04-20T08:34:54;98265.88;;;6.56;73.86
16544;BME280;8384;47.996;7.786;2023-04-20T08:37:19;98290.75;;;6.48;74.19
16544;BME280;8384;47.996;7.786;2023-04-20T08:39:45;98277.66;;;6.62;74.03
16544;BME280;8384;47.996;7.786;2023-04-20T08:42:10;98297.56;;;6.85;74.29
16544;BME280;8384;47.996;7.786;2023-04-20T08:44:36;98206.78;;;6.81;73.48
16544;BME280;8384;47.996;7.786;2023-04-20T08:47:04;98264.22;;;7.51;72.46
16544;BME280;8384;47.996;7.786;2023-04-20T08:49:32;98373.88;;;8.46;70.03
16544;BME280;8384;47.996;7.786;2023-04-20T08:51:58;98342.00;;;8.19;68.61
16544;BME280;8384;47.996;7.786;2023-04-20T08:54:23;98293.28;;;7.95;68.86
16544;BME280;8384;47.996;7.786;2023-04-20T08:56:49;98262.00;;;7.70;68.66
16544;BME280;8384;47.996;7.786;2023-04-20T08:59:17;98353.25;;;8.50;69.57
16544;BME280;8384;47.996;7.786;2023-04-20T09:01:43;98261.97;;;8.20;68.35
16544;BME280;8384;47.996;7.786;2023-04-20T09:04:22;98239.97;;;8.26;65.87
16544;BME280;8384;47.996;7.786;2023-04-20T09:06:54;98374.56;;;9.23;63.31
16544;BME280;8384;47.996;7.786;2023-04-20T09:09:30;98386.66;;;9.33;64.85
16544;BME280;8384;47.996;7.786;2023-04-20T09:12:06;98385.66;;;9.49;63.97
16544;BME280;8384;47.996;7.786;2023-04-20T09:14:44;98368.59;;;9.69;63.30
16544;BME280;8384;47.996;7.786;2023-04-20T09:17:09;98264.91;;;9.16;63.18
16544;BME280;8384;47.996;7.786;2023-04-20T09:19:38;98311.25;;;9.64;60.28
16544;BME280;8384;47.996;7.786;2023-04-20T09:22:03;98219.81;;;8.93;61.51
16544;BME280;8384;47.996;7.786;2023-04-20T09:24:35;98358.59;;;9.90;61.99
16544;BME280;8384;47.996;7.786;2023-04-20T09:27:02;98280.44;;;9.69;59.85
16544;BME280;8384;47.996;7.786;2023-04-20T09:29:41;98269.66;;;9.36;60.37
16544;BME280;8384;47.996;7.786;2023-04-20T09:32:06;98287.56;;;9.80;57.94
16544;BME280;8384;47.996;7.786;2023-04-20T09:34:41;98361.34;;;9.96;58.75
16544;BME280;8384;47.996;7.786;2023-04-20T09:37:08;98366.50;;;9.87;59.50
16544;BME280;8384;47.996;7.786;2023-04-20T09:39:41;98352.81;;;9.77;57.33
16544;BME280;8384;47.996;7.786;2023-04-20T09:42:11;98218.78;;;9.09;57.61
16544;BME280;8384;47.996;7.786;2023-04-20T09:44:38;98279.84;;;9.56;57.10
16544;BME280;8384;47.996;7.786;2023-04-20T09:47:09;98337.69;;;10.27;55.54
16544;BME280;8384;47.996;7.786;2023-04-20T09:49:43;98268.78;;;9.94;55.21
16544;BME280;8384;47.996;7.786;2023-04-20T09:52:15;98233.03;;;9.90;54.37
16544;BME280;8384;47.996;7.786;2023-04-20T09:54:46;98240.97;;;10.33;51.96
16544;BME280;8384;47.996;7.786;2023-04-20T09:57:12;98298.16;;;10.87;51.12
16544;BME280;8384;47.996;7.786;2023-04-20T09:59:45;98346.25;;;10.77;51.67
16544;BME280;8384;47.996;7.786;2023-04-20T10:02:16;98344.59;;;10.40;52.78
16544;BME280;8384;47.996;7.786;2023-04-20T10:04:55;98235.47;;;9.87;52.32
16544;BME280;8384;47.996;7.786;2023-04-20T10:07:28;98229.13;;;9.66;52.06
16544;BME280;8384;47.996;7.786;2023-04-20T10:10:14;98288.56;;;10.43;54.12
16544;BME280;8384;47.996;7.786;2023-04-20T10:12:59;98359.59;;;11.57;51.35
16544;BME280;8384;47.996;7.786;2023-04-20T10:15:42;98263.34;;;11.23;49.61
16544;BME280;8384;47.996;7.786;2023-04-20T10:18:21;98272.34;;;11.39;50.02
16544;BME280;8384;47.996;7.786;2023-04-20T10:21:03;98335.34;;;12.10;50.61
16544;BME280;8384;47.996;7.786;2023-04-20T10:23:48;98354.53;;;12.10;49.95
16544;BME280;8384;47.996;7.786;2023-04-20T10:26:16;98255.69;;;11.36;47.87
16544;BME280;8384;47.996;7.786;2023-04-20T10:28:49;98263.38;;;11.18;48.57
16544;BME280;8384;47.996;7.786;2023-04-20T10:31:14;98339.06;;;11.59;50.77
16544;BME280;8384;47.996;7.786;2023-04-20T10:33:56;98185.81;;;10.68;50.41
16544;BME280;8384;47.996;7.786;2023-04-20T10:36:30;98258.13;;;11.37;48.28
16544;BME280;8384;47.996;7.786;2023-04-20T10:38:56;98231.63;;;11.22;47.85
16544;BME280;8384;47.996;7.786;2023-04-20T10:41:22;98336.78;;;11.82;47.57
16544;BME280;8384;47.996;7.786;2023-04-20T10:43:47;98347.88;;;11.51;52.14
16544;BME280;8384;47.996;7.786;2023-04-20T10:46:23;98323.50;;;11.39;51.91
16544;BME280;8384;47.996;7.786;2023-04-20T10:51:14;98279.94;;;11.63;50.77
16544;BME280;8384;47.996;7.786;2023-04-20T10:53:41;98299.56;;;11.81;48.19
16544;BME280;8384;47.996;7.786;2023-04-20T10:56:06;98293.19;;;12.01;46.52
16544;BME280;8384;47.996;7.786;2023-04-20T10:58:31;98294.50;;;12.14;48.39
16544;BME280;8384;47.996;7.786;2023-04-20T11:01:01;98324.59;;;12.24;47.93
16544;BME280;8384;47.996;7.786;2023-04-20T11:03:27;98314.63;;;11.78;46.02
16544;BME280;8384;47.996;7.786;2023-04-20T11:05:53;98309.03;;;11.33;47.70
16544;BME280;8384;47.996;7.786;2023-04-20T11:08:18;98275.69;;;11.05;48.73
16544;BME280;8384;47.996;7.786;2023-04-20T11:10:45;98234.72;;;10.95;49.11
16544;BME280;8384;47.996;7.786;2023-04-20T11:13:20;98283.59;;;11.22;48.83
16544;BME280;8384;47.996;7.786;2023-04-20T11:15:53;98314.34;;;11.80;48.55
16544;BME280;8384;47.996;7.786;2023-04-20T11:18:18;98248.16;;;11.62;46.56
16544;BME280;8384;47.996;7.786;2023-04-20T11:20:54;98295.94;;;10.99;48.04
16544;BME280;8384;47.996;7.786;2023-04-20T11:23:20;98303.06;;;10.54;52.45
16544;BME280;8384;47.996;7.786;2023-04-20T11:25:54;98244.84;;;10.74;51.57
16544;BME280;8384;47.996;7.786;2023-04-20T11:28:20;98255.41;;;11.27;50.66
16544;BME280;8384;47.996;7.786;2023-04-20T11:30:45;98276.81;;;11.85;49.78
16544;BME280;8384;47.996;7.786;2023-04-20T11:33:11;98292.28;;;12.21;50.47
16544;BME280;8384;47.996;7.786;2023-04-20T11:35:41;98306.97;;;11.75;54.73
16544;BME280;8384;47.996;7.786;2023-04-20T11:38:07;98308.56;;;11.92;56.01
16544;BME280;8384;47.996;7.786;2023-04-20T11:40:33;98242.25;;;11.34;57.42
16544;BME280;8384;47.996;7.786;2023-04-20T11:42:58;98302.84;;;11.83;57.43
16544;BME280;8384;47.996;7.786;2023-04-20T11:45:25;98204.47;;;11.47;55.81
16544;BME280;8384;47.996;7.786;2023-04-20T11:47:53;98195.41;;;11.51;55.29
16544;BME280;8384;47.996;7.786;2023-04-20T11:50:19;98241.94;;;11.51;52.98
16544;BME280;8384;47.996;7.786;2023-04-20T11:52:45;98162.47;;;11.01;53.19
16544;BME280;8384;47.996;7.786;2023-04-20T11:55:10;98227.31;;;11.01;52.71
16544;BME280;8384;47.996;7.786;2023-04-20T11:57:36;98268.88;;;10.92;52.99
16544;BME280;8384;47.996;7.786;2023-04-20T12:00:02;98286.94;;;10.73;54.94
16544;BME280;8384;47.996;7.786;2023-04-20T12:02:28;98270.25;;;10.54;54.54
16544;BME280;8384;47.996;7.786;2023-04-20T12:04:53;98255.78;;;10.63;55.97
16544;BME280;8384;47.996;7.786;2023-04-20T12:07:18;98236.91;;;10.83;56.18
16544;BME280;8384;47.996;7.786;2023-04-20T12:09:44;98234.66;;;11.21;53.53
16544;BME280;8384;47.996;7.786;2023-04-20T12:12:09;98212.94;;;11.45;54.77
16544;BME280;8384;47.996;7.786;2023-04-20T12:14:37;98192.94;;;12.05;52.46
16544;BME280;8384;47.996;7.786;2023-04-20T12:17:03;98223.94;;;13.24;50.65
16544;BME280;8384;47.996;7.786;2023-04-20T12:19:29;98272.44;;;14.01;47.66
16544;BME280;8384;47.996;7.786;2023-04-20T12:21:54;98262.97;;;13.69;46.94
16544;BME280;8384;47.996;7.786;2023-04-20T12:24:20;98271.25;;;13.88;46.75
16544;BME280;8384;47.996;7.786;2023-04-20T12:26:45;98249.09;;;13.79;45.53
16544;BME280;8384;47.996;7.786;2023-04-20T12:29:11;98240.94;;;13.74;44.80
16544;BME280;8384;47.996;7.786;2023-04-20T12:31:36;98214.06;;;13.71;44.27
16544;BME280;8384;47.996;7.786;2023-04-20T12:34:05;98265.31;;;14.00;44.30
16544;BME280;8384;47.996;7.786;2023-04-20T12:36:40;98278.97;;;14.44;43.64
16544;BME280;8384;47.996;7.786;2023-04-20T12:39:05;98199.94;;;13.97;43.35
16544;BME280;8384;47.996;7.786;2023-04-20T12:41:36;98261.94;;;14.61;42.23
16544;BME280;8384;47.996;7.786;2023-04-20T12:44:01;98279.47;;;14.84;42.50
16544;BME280;8384;47.996;7.786;2023-04-20T12:46:30;98184.81;;;14.52;40.65
16544;BME280;8384;47.996;7.786;2023-04-20T12:48:57;98213.06;;;15.05;40.18
16544;BME280;8384;47.996;7.786;2023-04-20T12:51:23;98175.72;;;14.84;40.39
16544;BME280;8384;47.996;7.786;2023-04-20T12:53:48;98229.94;;;15.45;39.30
16544;BME280;8384;47.996;7.786;2023-04-20T12:56:13;98246.00;;;15.80;39.08
16544;BME280;8384;47.996;7.786;2023-04-20T12:58:39;98249.28;;;15.96;38.58
16544;BME280;8384;47.996;7.786;2023-04-20T13:01:08;98248.16;;;16.33;37.75
16544;BME280;8384;47.996;7.786;2023-04-20T13:03:33;98204.53;;;16.36;35.69
16544;BME280;8384;47.996;7.786;2023-04-20T13:06:09;98163.38;;;16.71;36.30
16544;BME280;8384;47.996;7.786;2023-04-20T13:08:42;98157.97;;;17.37;34.10
16544;BME280;8384;47.996;7.786;2023-04-20T13:11:10;98246.13;;;17.16;32.35
16544;BME280;8384;47.996;7.786;2023-04-20T13:13:36;98153.44;;;17.33;33.85
16544;BME280;8384;47.996;7.786;2023-04-20T13:16:01;98186.28;;;17.43;32.39
16544;BME280;8384;47.996;7.786;2023-04-20T13:18:27;98248.16;;;17.91;33.47
16544;BME280;8384;47.996;7.786;2023-04-20T13:20:52;98206.59;;;18.14;31.91
16544;BME280;8384;47.996;7.786;2023-04-20T13:23:17;98243.16;;;18.99;31.36